Share

Idjevan, Armenia

Gyandzha (UBBG) Elev 1083 ft | 40.74 °N, 46.32 °E | Change Station

Current weather conditions updated 21 minutes ago

Scattered Clouds
Scattered Clouds
55 °F
Feels Like 55 °F
N
8
Wind Variable Wind from West
Sunrise 6:13 AM
Sunset 7:43 PM
Moon Waning Gibbous

Today is forecast to be Much Cooler than yesterday. Afternoon showers and thunderstorms.

Pressure 29.98 in
Visibility 6.2 miles
Clouds Scattered Clouds 10000 ft
Dew Point 39 °F
Humidity 54%
Rainfall 0.00 in
Snow Depth Not available.
UV 0 out of 16
Pollen Not available.
Air Quality Not available.
Flu Activity Not available.
METAR UBBG 200030Z 27007KT 9999 SCT100 13/04 Q1015 R12/CLRD70 NOSIG

More Conditions Fewer Conditions

Pressure 29.98 in
Visibility 6.2 miles
Clouds Scattered Clouds 10000 ft
Dew Point 39 °F
Humidity 54%
Rainfall 0.00 in
Snow Depth Not available.
UV 0 out of 16
Pollen Not available.
Air Quality Not available.
Flu Activity Not available.
METAR UBBG 200030Z 27007KT 9999 SCT100 13/04 Q1015 R12/CLRD70 NOSIG

More Conditions Fewer Conditions

10-Day Weather Forecast

Almanac

Astronomy

Apr. 20, 2014 Rise Set
Actual Time 6:13 AM AMT 7:43 PM AMT
Civil Twilight 5:44 AM AMT 8:12 PM AMT
Nautical Twilight 5:10 AM AMT 8:47 PM AMT
Astronomical Twilight 4:33 AM AMT 9:24 PM AMT
Moon 12:04 AM AMT 10:09 AM AMT
Length of Visible Light 14h 28m
Length of Day
13h 30m
Tomorrow will be 2m 32s longer.
Waning Gibbous, 75% of the Moon is Illuminated
Apr 19
Waning Gibbous
Apr 22
Last Quarter
Apr 29
New
May 6
First Quarter
May 14
Full

Yesterday's Extremes

Country Highs Country Lows

Community

  • White-Crowned Sparrow
    White-Crowned Sparrow
  • New Day
    New Day
  • Happy Easter!
    Happy Easter!
  • poppy bloom near Mazar-e-Sharif
    poppy bloom near Mazar-e-Sharif
  • Happy Easter WU friends!!!!
    Happy Easter WU friends!!!!

WunderPhotos

Upload Photos

1,702,996 photos uploaded!

WunderBlogs® & News

Nearby

Snow Depth

Not available.

Coastal Water Temperatures

Place Temperature
No Stations Reporting

Earthquake Activity

City Distance Mag. Time & Date
No recent earthquake activity has been reported nearby.
Minimum magnitude displayed is 2.5.

Nearby Weather Stations

There are no personal weather stations in this area.

What do you think?

We're not finished. Please let us know what you like, what you don't like, and what you are still missing.